Time,TemperatureF,DewpointF,PressureIn,WindDirection,WindDirectionDegrees,WindSpeedMPH,WindSpeedGustMPH,Humidity,HourlyPrecipIn,Conditions,Clouds,dailyrainin,SolarRadiationWatts/m^2,SoftwareType,DateUTC
2013-08-24 00:22:00,57.0,49.0,-100.00,SSE,167,2.0,5.0,75,0.00,,,-99.99,1.000000,,2013-08-24 07:22:00,
2013-08-24 00:32:00,57.0,49.0,-100.00,SSE,167,2.0,5.0,75,0.00,,,-99.99,1.000000,,2013-08-24 07:32:00,
2013-08-24 00:43:00,57.0,49.0,-100.00,SSE,167,2.0,5.0,75,0.00,,,-99.99,1.000000,,2013-08-24 07:43:00,
2013-08-24 00:53:00,57.0,49.0,-100.00,SSE,167,2.0,5.0,75,0.00,,,-99.99,1.000000,,2013-08-24 07:53:00,
2013-08-24 01:22:00,54.0,48.0,-100.00,East,92,3.0,4.0,80,0.00,,,0.00,1.000000,,2013-08-24 08:22:00,
2013-08-24 01:32:00,54.0,48.0,-100.00,East,92,3.0,4.0,80,0.00,,,0.00,1.000000,,2013-08-24 08:32:00,
2013-08-24 01:42:00,54.0,48.0,-100.00,East,92,3.0,4.0,80,0.00,,,0.00,1.000000,,2013-08-24 08:42:00,
2013-08-24 01:52:00,54.0,48.0,-100.00,East,92,3.0,4.0,80,0.00,,,0.00,1.000000,,2013-08-24 08:52:00,
2013-08-24 02:22:00,54.0,48.0,-100.00,ESE,119,0.0,4.0,81,0.00,,,0.00,1.000000,,2013-08-24 09:22:00,
2013-08-24 02:33:00,54.0,48.0,-100.00,ESE,119,0.0,4.0,81,0.00,,,0.00,1.000000,,2013-08-24 09:33:00,
2013-08-24 02:44:00,54.0,48.0,-100.00,ESE,119,0.0,4.0,81,0.00,,,0.00,1.000000,,2013-08-24 09:44:00,
2013-08-24 02:53:00,54.0,48.0,-100.00,ESE,119,0.0,4.0,81,0.00,,,0.00,1.000000,,2013-08-24 09:53:00,
2013-08-24 03:23:00,51.0,48.0,-100.00,East,88,2.0,3.0,88,0.00,,,0.00,1.000000,,2013-08-24 10:23:00,
2013-08-24 03:32:00,51.0,48.0,-100.00,East,88,2.0,3.0,88,0.00,,,0.00,1.000000,,2013-08-24 10:32:00,
2013-08-24 03:42:00,51.0,48.0,-100.00,East,88,2.0,3.0,88,0.00,,,0.00,1.000000,,2013-08-24 10:42:00,
2013-08-24 03:52:00,51.0,48.0,-100.00,East,88,2.0,3.0,88,0.00,,,0.00,1.000000,,2013-08-24 10:52:00,
2013-08-24 04:22:00,50.0,47.0,-100.00,East,81,4.0,4.0,89,0.00,,,0.00,1.000000,,2013-08-24 11:22:00,
2013-08-24 04:33:00,50.0,47.0,-100.00,East,81,4.0,4.0,89,0.00,,,0.00,1.000000,,2013-08-24 11:33:00,
2013-08-24 04:42:00,50.0,47.0,-100.00,East,81,4.0,4.0,89,0.00,,,0.00,1.000000,,2013-08-24 11:42:00,
2013-08-24 04:52:00,50.0,47.0,-100.00,East,81,4.0,4.0,89,0.00,,,0.00,1.000000,,2013-08-24 11:52:00,
2013-08-24 05:21:00,48.0,46.0,-100.00,ENE,73,4.0,5.0,93,0.00,,,0.00,1.000000,,2013-08-24 12:21:00,
2013-08-24 05:32:00,48.0,46.0,-100.00,ENE,73,4.0,5.0,93,0.00,,,0.00,1.000000,,2013-08-24 12:32:00,
2013-08-24 05:42:00,48.0,46.0,-100.00,ENE,73,4.0,5.0,93,0.00,,,0.00,1.000000,,2013-08-24 12:42:00,
2013-08-24 05:52:00,48.0,46.0,-100.00,ENE,73,4.0,5.0,93,0.00,,,0.00,1.000000,,2013-08-24 12:52:00,
2013-08-24 06:22:00,47.0,45.0,-100.00,ENE,74,5.0,7.0,94,0.00,,,0.00,1.000000,,2013-08-24 13:22:00,
2013-08-24 06:32:00,47.0,45.0,-100.00,ENE,74,5.0,7.0,94,0.00,,,0.00,1.000000,,2013-08-24 13:32:00,
2013-08-24 06:42:00,47.0,45.0,-100.00,ENE,74,5.0,7.0,94,0.00,,,0.00,1.000000,,2013-08-24 13:42:00,
2013-08-24 06:52:00,47.0,45.0,-100.00,ENE,74,5.0,7.0,94,0.00,,,0.00,1.000000,,2013-08-24 13:52:00,
2013-08-24 07:22:00,47.0,46.0,-100.00,ENE,62,4.0,7.0,97,0.00,,,0.00,7.000000,,2013-08-24 14:22:00,
2013-08-24 07:32:00,47.0,46.0,-100.00,ENE,62,4.0,7.0,97,0.00,,,0.00,7.000000,,2013-08-24 14:32:00,
2013-08-24 07:42:00,47.0,46.0,-100.00,ENE,62,4.0,7.0,97,0.00,,,0.00,7.000000,,2013-08-24 14:42:00,
2013-08-24 07:52:00,47.0,46.0,-100.00,ENE,62,4.0,7.0,97,0.00,,,0.00,7.000000,,2013-08-24 14:52:00,
2013-08-24 08:22:00,52.0,48.0,-100.00,ENE,78,4.0,6.0,87,0.00,,,-99.99,103.000000,,2013-08-24 15:22:00,
2013-08-24 08:34:00,52.0,48.0,-100.00,ENE,78,4.0,6.0,87,0.00,,,-99.99,103.000000,,2013-08-24 15:34:00,
2013-08-24 08:45:00,52.0,48.0,-100.00,ENE,78,4.0,6.0,87,0.00,,,-99.99,103.000000,,2013-08-24 15:45:00,
2013-08-24 08:54:00,52.0,48.0,-100.00,ENE,78,4.0,6.0,87,0.00,,,-99.99,103.000000,,2013-08-24 15:54:00,
2013-08-24 09:23:00,58.0,50.0,-100.00,NE,38,5.0,9.0,74,0.00,,,0.00,296.000000,,2013-08-24 16:23:00,
2013-08-24 09:33:00,58.0,50.0,-100.00,NE,38,5.0,9.0,74,0.00,,,0.00,296.000000,,2013-08-24 16:33:00,
2013-08-24 09:42:00,58.0,50.0,-100.00,NE,38,5.0,9.0,74,0.00,,,0.00,296.000000,,2013-08-24 16:42:00,
2013-08-24 09:53:00,58.0,50.0,-100.00,NE,38,5.0,9.0,74,0.00,,,0.00,296.000000,,2013-08-24 16:53:00,
2013-08-24 10:23:00,65.0,51.0,-100.00,WNW,298,3.0,7.0,60,0.00,,,0.00,485.000000,,2013-08-24 17:23:00,
2013-08-24 10:34:00,65.0,51.0,-100.00,WNW,298,3.0,7.0,60,0.00,,,0.00,485.000000,,2013-08-24 17:34:00,
2013-08-24 10:42:00,65.0,51.0,-100.00,WNW,298,3.0,7.0,60,0.00,,,0.00,485.000000,,2013-08-24 17:42:00,
2013-08-24 10:52:00,65.0,51.0,-100.00,WNW,298,3.0,7.0,60,0.00,,,0.00,485.000000,,2013-08-24 17:52:00,
2013-08-24 11:22:00,69.0,51.0,-100.00,WSW,256,6.0,11.0,52,0.00,,,0.00,657.000000,,2013-08-24 18:22:00,
2013-08-24 11:32:00,69.0,51.0,-100.00,WSW,256,6.0,11.0,52,0.00,,,0.00,657.000000,,2013-08-24 18:32:00,
2013-08-24 11:42:00,69.0,51.0,-100.00,WSW,256,6.0,11.0,52,0.00,,,0.00,657.000000,,2013-08-24 18:42:00,
2013-08-24 11:53:00,69.0,51.0,-100.00,WSW,256,6.0,11.0,52,0.00,,,0.00,657.000000,,2013-08-24 18:53:00,
2013-08-24 12:21:00,72.0,49.0,-100.00,SW,225,7.0,13.0,44,0.00,,,0.00,787.000000,,2013-08-24 19:21:00,
2013-08-24 12:32:00,72.0,49.0,-100.00,SW,225,7.0,13.0,44,0.00,,,0.00,787.000000,,2013-08-24 19:32:00,
2013-08-24 12:42:00,72.0,49.0,-100.00,SW,225,7.0,13.0,44,0.00,,,0.00,787.000000,,2013-08-24 19:42:00,
2013-08-24 12:52:00,72.0,49.0,-100.00,SW,225,7.0,13.0,44,0.00,,,0.00,787.000000,,2013-08-24 19:52:00,
2013-08-24 13:22:00,75.0,48.0,-100.00,SSE,166,5.0,13.0,38,0.00,,,0.00,849.000000,,2013-08-24 20:22:00,
2013-08-24 13:32:00,75.0,48.0,-100.00,SSE,166,5.0,13.0,38,0.00,,,0.00,849.000000,,2013-08-24 20:32:00,
2013-08-24 13:42:00,75.0,48.0,-100.00,SSE,166,5.0,13.0,38,0.00,,,0.00,849.000000,,2013-08-24 20:42:00,
2013-08-24 13:52:00,75.0,48.0,-100.00,SSE,166,5.0,13.0,38,0.00,,,0.00,849.000000,,2013-08-24 20:52:00,
2013-08-24 14:22:00,78.0,43.0,-100.00,SW,234,9.0,15.0,29,0.00,,,0.00,839.000000,,2013-08-24 21:22:00,
2013-08-24 14:34:00,78.0,43.0,-100.00,SW,234,9.0,15.0,29,0.00,,,0.00,839.000000,,2013-08-24 21:34:00,
2013-08-24 14:43:00,78.0,43.0,-100.00,SW,234,9.0,15.0,29,0.00,,,0.00,839.000000,,2013-08-24 21:43:00,
2013-08-24 14:54:00,78.0,43.0,-100.00,SW,234,9.0,15.0,29,0.00,,,0.00,839.000000,,2013-08-24 21:54:00,
2013-08-24 15:23:00,78.0,40.0,-100.00,SW,224,9.0,18.0,26,0.00,,,0.00,780.000000,,2013-08-24 22:23:00,
2013-08-24 15:33:00,78.0,40.0,-100.00,SW,224,9.0,18.0,26,0.00,,,0.00,780.000000,,2013-08-24 22:33:00,
2013-08-24 15:42:00,78.0,40.0,-100.00,SW,224,9.0,18.0,26,0.00,,,0.00,780.000000,,2013-08-24 22:42:00,
2013-08-24 15:53:00,78.0,40.0,-100.00,SW,224,9.0,18.0,26,0.00,,,0.00,780.000000,,2013-08-24 22:53:00,
2013-08-24 16:22:00,77.0,46.0,-100.00,West,276,9.0,18.0,34,0.00,,,0.00,729.000000,,2013-08-24 23:22:00,
2013-08-24 16:34:00,77.0,46.0,-100.00,West,276,9.0,18.0,34,0.00,,,0.00,729.000000,,2013-08-24 23:34:00,
2013-08-24 16:42:00,77.0,46.0,-100.00,West,276,9.0,18.0,34,0.00,,,0.00,729.000000,,2013-08-24 23:42:00,
2013-08-24 16:53:00,77.0,46.0,-100.00,West,276,9.0,18.0,34,0.00,,,0.00,729.000000,,2013-08-24 23:53:00,
2013-08-24 17:22:00,72.0,44.0,-100.00,West,262,8.0,14.0,36,0.00,,,0.00,297.000000,,2013-08-25 00:22:00,
2013-08-24 17:32:00,72.0,44.0,-100.00,West,262,8.0,14.0,36,0.00,,,0.00,297.000000,,2013-08-25 00:32:00,
2013-08-24 17:42:00,72.0,44.0,-100.00,West,262,8.0,14.0,36,0.00,,,0.00,297.000000,,2013-08-25 00:42:00,
2013-08-24 17:52:00,72.0,44.0,-100.00,West,262,8.0,14.0,36,0.00,,,0.00,297.000000,,2013-08-25 00:52:00,
2013-08-24 19:22:00,60.0,52.0,-100.00,SW,229,2.0,13.0,75,0.00,,,-99.99,90.000000,,2013-08-25 02:22:00,
2013-08-24 19:33:00,60.0,52.0,-100.00,SW,229,2.0,13.0,75,0.00,,,-99.99,90.000000,,2013-08-25 02:33:00,
2013-08-24 19:42:00,60.0,52.0,-100.00,SW,229,2.0,13.0,75,0.00,,,-99.99,90.000000,,2013-08-25 02:42:00,
2013-08-24 19:52:00,60.0,52.0,-100.00,SW,229,2.0,13.0,75,0.00,,,-99.99,90.000000,,2013-08-25 02:52:00,
2013-08-24 20:23:00,58.0,51.0,-100.00,South,187,2.0,5.0,78,0.00,,,0.03,24.000000,,2013-08-25 03:23:00,
2013-08-24 20:34:00,58.0,51.0,-100.00,South,187,2.0,5.0,78,0.00,,,0.03,24.000000,,2013-08-25 03:34:00,
2013-08-24 20:44:00,58.0,51.0,-100.00,South,187,2.0,5.0,78,0.00,,,0.03,24.000000,,2013-08-25 03:44:00,
2013-08-24 20:54:00,58.0,51.0,-100.00,South,187,2.0,5.0,78,0.00,,,0.03,24.000000,,2013-08-25 03:54:00,
2013-08-24 21:25:00,57.0,51.0,-100.00,East,97,2.0,6.0,79,0.00,,,0.03,1.000000,,2013-08-25 04:25:00,
2013-08-24 21:33:00,57.0,51.0,-100.00,East,97,2.0,6.0,79,0.00,,,0.03,1.000000,,2013-08-25 04:33:00,
2013-08-24 21:43:00,57.0,51.0,-100.00,East,97,2.0,6.0,79,0.00,,,0.03,1.000000,,2013-08-25 04:43:00,
2013-08-24 21:54:00,57.0,51.0,-100.00,East,97,2.0,6.0,79,0.00,,,0.03,1.000000,,2013-08-25 04:54:00,
2013-08-24 22:22:00,58.0,48.0,-100.00,NNE,23,2.0,5.0,69,0.00,,,0.03,1.000000,,2013-08-25 05:22:00,
2013-08-24 22:34:00,58.0,48.0,-100.00,NNE,23,2.0,5.0,69,0.00,,,0.03,1.000000,,2013-08-25 05:34:00,
2013-08-24 22:42:00,58.0,48.0,-100.00,NNE,23,2.0,5.0,69,0.00,,,0.03,1.000000,,2013-08-25 05:42:00,
2013-08-24 22:52:00,58.0,48.0,-100.00,NNE,23,2.0,5.0,69,0.00,,,0.03,1.000000,,2013-08-25 05:52:00,
2013-08-24 23:22:00,55.0,49.0,-100.00,ENE,78,3.0,5.0,81,0.00,,,0.03,1.000000,,2013-08-25 06:22:00,
2013-08-24 23:32:00,55.0,49.0,-100.00,ENE,78,3.0,5.0,81,0.00,,,0.03,1.000000,,2013-08-25 06:32:00,
2013-08-24 23:43:00,55.0,49.0,-100.00,ENE,78,3.0,5.0,81,0.00,,,0.03,1.000000,,2013-08-25 06:43:00,
2013-08-24 23:52:00,55.0,49.0,-100.00,ENE,78,3.0,5.0,81,0.00,,,0.03,1.000000,,2013-08-25 06:52:00,